Time;durP1;ratioP1;P1;durP2;ratioP2;P2;SDS_P1;SDS_P2;PMS_P1;PMS_P2;Temp;Humidity;BMP_temperature;BMP_pressure;BME280_temperature;BME280_humidity;BME280_pressure;Samples;Min_cycle;Max_cycle;Signal;HPM_P1;HPM_P2
2021/04/10 00:03:46;;;;;;;1.30;1.10;;;18.60;52.70;;;;;;10457823;28;20216;-64
2021/04/10 00:09:09;;;;;;;0.70;0.60;;;18.60;52.80;;;;;;10447945;22;20236;-61
2021/04/10 00:14:30;;;;;;;0.90;0.77;;;18.60;52.80;;;;;;10419205;28;20221;-63
2021/04/10 00:19:52;;;;;;;1.50;1.03;;;18.60;52.80;;;;;;10415835;28;20320;-63
2021/04/10 00:25:16;;;;;;;2.60;0.63;;;18.60;52.80;;;;;;10416395;28;20200;-61
2021/04/10 00:30:37;;;;;;;1.60;0.90;;;18.60;52.70;;;;;;10415880;28;20602;-64
2021/04/10 00:35:59;;;;;;;1.43;0.90;;;18.60;52.80;;;;;;10415364;28;20220;-64
2021/04/10 00:41:22;;;;;;;1.53;1.07;;;18.60;52.90;;;;;;10423288;28;20638;-63
2021/04/10 00:46:44;;;;;;;0.77;0.60;;;18.60;52.80;;;;;;10414346;28;20194;-63
2021/04/10 00:52:08;;;;;;;1.30;0.80;;;18.60;52.70;;;;;;10414833;28;20583;-62
2021/04/10 00:57:31;;;;;;;1.50;0.83;;;18.60;53.30;;;;;;10413629;28;20574;-63
2021/04/10 01:02:52;;;;;;;0.87;0.60;;;18.60;52.80;;;;;;10413949;28;20626;-63
2021/04/10 01:08:14;;;;;;;1.10;0.67;;;18.60;52.90;;;;;;10413883;28;20251;-63
2021/04/10 01:13:49;;;;;;;0.80;0.70;;;18.60;52.80;;;;;;10413662;28;20217;-63
2021/04/10 01:19:42;;;;;;;1.67;0.90;;;18.50;52.70;;;;;;10453832;28;20212;-63
2021/04/10 01:25:06;;;;;;;0.97;0.80;;;18.50;52.70;;;;;;10428859;28;20193;-63
2021/04/10 01:30:33;;;;;;;1.60;0.73;;;18.50;52.90;;;;;;10412783;28;20561;-63
2021/04/10 01:36:00;;;;;;;1.23;0.70;;;18.50;52.80;;;;;;10453855;28;20263;-63
2021/04/10 01:41:23;;;;;;;1.33;0.80;;;18.50;52.80;;;;;;10453985;28;20205;-64
2021/04/10 01:46:46;;;;;;;1.03;0.90;;;18.50;52.80;;;;;;10454125;28;20189;-63
2021/04/10 01:52:10;;;;;;;0.80;0.60;;;18.50;52.80;;;;;;10412734;28;20221;-63
2021/04/10 01:57:31;;;;;;;0.93;0.77;;;18.50;52.80;;;;;;10410949;28;20190;-63
2021/04/10 02:02:55;;;;;;;1.07;0.63;;;18.50;52.80;;;;;;10410632;28;20206;-63
2021/04/10 02:08:19;;;;;;;2.13;0.83;;;18.50;52.80;;;;;;10412830;28;20210;-63
2021/04/10 02:13:42;;;;;;;1.13;0.80;;;18.50;52.80;;;;;;10426172;28;20213;-63
2021/04/10 02:19:04;;;;;;;1.03;0.80;;;18.50;52.80;;;;;;10410678;28;20194;-64
2021/04/10 02:24:26;;;;;;;1.47;0.87;;;18.50;52.80;;;;;;10410632;28;20626;-63
2021/04/10 02:29:48;;;;;;;1.33;0.80;;;18.50;52.80;;;;;;10416421;28;20197;-63
2021/04/10 02:35:15;;;;;;;0.70;0.60;;;18.50;52.80;;;;;;10419300;28;20719;-63
2021/04/10 02:40:42;;;;;;;1.47;0.60;;;18.50;52.80;;;;;;10410097;28;20214;-63
2021/04/10 02:46:05;;;;;;;1.10;0.70;;;18.50;52.80;;;;;;10411408;28;20193;-63
2021/04/10 02:51:35;;;;;;;0.90;0.67;;;18.50;52.80;;;;;;10425380;28;20231;-64
2021/04/10 02:57:01;;;;;;;0.90;0.70;;;18.50;52.80;;;;;;10453139;28;20217;-63
2021/04/10 03:02:23;;;;;;;0.80;0.60;;;18.50;52.80;;;;;;10415867;28;20218;-63
2021/04/10 03:07:47;;;;;;;1.40;0.80;;;18.50;52.80;;;;;;10411192;28;20571;-63
2021/04/10 03:13:12;;;;;;;1.00;0.80;;;18.50;52.80;;;;;;10411063;28;20230;-63
2021/04/10 03:18:35;;;;;;;1.07;0.70;;;18.50;52.80;;;;;;10450437;28;20225;-63
2021/04/10 03:23:58;;;;;;;1.03;0.80;;;18.50;52.80;;;;;;10451417;28;20620;-63
2021/04/10 03:29:20;;;;;;;0.80;0.67;;;18.50;52.80;;;;;;10423326;28;20201;-63
2021/04/10 03:34:42;;;;;;;1.83;0.93;;;18.50;52.80;;;;;;10409858;28;20222;-63
2021/04/10 03:40:07;;;;;;;1.20;0.80;;;18.50;52.80;;;;;;10421017;28;20671;-63
2021/04/10 03:45:28;;;;;;;2.20;1.07;;;18.50;52.80;;;;;;10412181;28;20186;-63
2021/04/10 03:50:51;;;;;;;1.00;0.70;;;18.40;52.80;;;;;;10408449;28;20222;-63
2021/04/10 03:56:13;;;;;;;1.27;0.90;;;18.40;52.80;;;;;;10408829;28;20709;-63
2021/04/10 04:01:35;;;;;;;1.50;0.80;;;18.40;52.80;;;;;;10408481;28;20221;-63
2021/04/10 04:06:57;;;;;;;1.97;0.93;;;18.40;52.80;;;;;;10408531;28;20194;-63
2021/04/10 04:12:19;;;;;;;1.53;0.90;;;18.40;52.70;;;;;;10441051;28;20217;-63
2021/04/10 04:17:41;;;;;;;1.33;0.80;;;18.40;52.80;;;;;;10449570;28;20212;-63
2021/04/10 04:23:02;;;;;;;1.30;0.80;;;18.40;52.80;;;;;;10449787;28;20212;-63
2021/04/10 04:28:25;;;;;;;1.07;0.70;;;18.40;52.80;;;;;;10420825;28;20204;-63
2021/04/10 04:33:47;;;;;;;1.40;0.73;;;18.40;52.80;;;;;;10430291;28;20213;-63
2021/04/10 04:39:09;;;;;;;1.27;0.90;;;18.40;52.80;;;;;;10456735;28;20193;-63
2021/04/10 04:44:31;;;;;;;2.13;0.70;;;18.40;52.80;;;;;;10455023;28;20221;-61
2021/04/10 04:49:53;;;;;;;0.63;0.50;;;18.50;52.80;;;;;;10455902;28;20189;-63
2021/04/10 04:55:15;;;;;;;1.30;0.73;;;18.50;52.70;;;;;;10456432;28;20208;-61
2021/04/10 05:00:37;;;;;;;1.03;0.80;;;18.50;52.80;;;;;;10455412;28;20679;-63
2021/04/10 05:05:59;;;;;;;1.90;1.00;;;18.50;52.80;;;;;;10455336;28;20531;-63
2021/04/10 05:11:21;;;;;;;2.30;0.80;;;18.50;52.60;;;;;;10415079;28;20233;-63
2021/04/10 05:16:43;;;;;;;0.47;0.40;;;18.60;52.60;;;;;;10413200;28;20221;-64
2021/04/10 05:22:05;;;;;;;0.83;0.70;;;18.60;52.60;;;;;;10413619;28;20227;-63
2021/04/10 05:27:27;;;;;;;1.70;0.80;;;18.50;52.60;;;;;;10413426;28;20189;-63
2021/04/10 05:32:49;;;;;;;1.33;0.80;;;18.50;52.60;;;;;;10420647;28;20228;-63
2021/04/10 05:38:11;;;;;;;1.50;0.90;;;18.60;52.60;;;;;;10413504;28;20194;-63
2021/04/10 05:43:32;;;;;;;1.07;0.70;;;18.60;52.50;;;;;;10434475;28;20697;-63
2021/04/10 05:48:55;;;;;;;1.13;0.73;;;18.60;52.50;;;;;;10453184;28;20244;-63
2021/04/10 05:54:16;;;;;;;1.23;0.70;;;18.60;52.40;;;;;;10452634;28;20225;-63
2021/04/10 05:59:38;;;;;;;1.10;0.80;;;18.60;52.40;;;;;;10452474;28;20193;-63
2021/04/10 06:05:01;;;;;;;1.67;0.90;;;18.60;52.40;;;;;;10453611;28;20193;-63
2021/04/10 06:10:22;;;;;;;1.63;0.87;;;18.60;53.00;;;;;;10441451;22;20251;-64
2021/04/10 06:15:44;;;;;;;2.07;0.80;;;18.60;52.40;;;;;;10411228;28;20683;-65
2021/04/10 06:21:07;;;;;;;1.17;0.70;;;18.60;53.00;;;;;;10413312;28;20224;-64
2021/04/10 06:26:29;;;;;;;1.90;0.70;;;18.60;52.40;;;;;;10453136;28;20201;-64
2021/04/10 06:31:51;;;;;;;1.50;0.90;;;18.60;52.40;;;;;;10419533;28;20236;-64
2021/04/10 06:37:13;;;;;;;1.47;0.73;;;18.60;52.40;;;;;;10410858;28;20284;-63
2021/04/10 06:42:35;;;;;;;1.87;0.83;;;18.60;52.50;;;;;;10410027;28;20240;-64
2021/04/10 06:47:58;;;;;;;1.37;0.70;;;18.60;52.40;;;;;;10411171;28;20194;-65
2021/04/10 06:53:21;;;;;;;1.03;0.67;;;18.60;52.40;;;;;;10435458;28;20225;-64
2021/04/10 06:58:51;;;;;;;1.93;0.80;;;18.60;52.40;;;;;;10448562;28;20229;-64
2021/04/10 07:04:13;;;;;;;1.97;0.80;;;18.60;52.40;;;;;;10443102;28;20617;-64
2021/04/10 07:09:37;;;;;;;1.57;0.70;;;18.60;52.50;;;;;;10429118;28;20206;-65
2021/04/10 07:14:59;;;;;;;2.10;0.93;;;18.60;52.50;;;;;;10406630;28;20221;-64
2021/04/10 07:20:25;;;;;;;1.97;0.80;;;18.60;53.00;;;;;;10424502;28;20224;-64
2021/04/10 07:25:49;;;;;;;2.27;0.93;;;18.60;52.40;;;;;;10421267;28;20192;-65
2021/04/10 07:31:12;;;;;;;1.53;0.90;;;18.60;52.40;;;;;;10441657;28;21078;-65
2021/04/10 07:36:34;;;;;;;2.07;0.80;;;18.60;52.40;;;;;;10448250;28;20216;-65
2021/04/10 07:42:01;;;;;;;1.43;0.63;;;18.60;52.40;;;;;;10441973;28;20221;-65
2021/04/10 07:47:37;;;;;;;2.07;0.77;;;18.60;52.40;;;;;;10413892;28;20216;-64
2021/04/10 07:53:19;;;;;;;2.20;0.63;;;18.60;52.20;;;;;;10450634;28;20221;-65
2021/04/10 07:58:41;;;;;;;2.50;0.90;;;18.70;52.30;;;;;;10449213;28;20229;-65
2021/04/10 08:04:13;;;;;;;1.43;0.80;;;18.60;52.40;;;;;;10450676;28;20267;-65
2021/04/10 08:09:36;;;;;;;1.43;0.77;;;18.60;52.30;;;;;;10430661;28;20735;-65
2021/04/10 08:14:59;;;;;;;1.47;0.73;;;18.60;52.30;;;;;;10415231;28;20817;-65
2021/04/10 08:20:22;;;;;;;2.47;1.00;;;18.60;52.20;;;;;;10416245;28;20582;-65
2021/04/10 08:25:44;;;;;;;1.63;0.87;;;18.60;52.20;;;;;;10435007;28;20197;-65
2021/04/10 08:31:07;;;;;;;1.93;0.80;;;18.60;52.30;;;;;;10455924;28;20602;-65
2021/04/10 08:36:29;;;;;;;2.07;0.77;;;18.60;52.30;;;;;;10457685;28;20209;-64
2021/04/10 08:41:55;;;;;;;2.10;0.90;;;18.70;52.30;;;;;;10416425;28;20275;-65
2021/04/10 08:47:19;;;;;;;1.30;0.80;;;18.70;52.20;;;;;;10416248;28;20288;-65
2021/04/10 08:52:41;;;;;;;2.03;0.67;;;18.60;52.20;;;;;;10423591;28;20220;-65
2021/04/10 08:58:18;;;;;;;2.07;0.90;;;18.60;52.20;;;;;;10456988;28;20274;-65
2021/04/10 09:03:54;;;;;;;1.30;0.70;;;18.70;52.20;;;;;;10455435;28;20291;-65
2021/04/10 09:09:29;;;;;;;1.30;0.60;;;18.70;52.10;;;;;;10432772;28;20209;-64
2021/04/10 09:14:51;;;;;;;1.80;0.70;;;18.70;52.10;;;;;;10441338;28;20262;-63
2021/04/10 09:20:13;;;;;;;5.03;1.27;;;18.70;52.20;;;;;;10451908;28;20582;-65
2021/04/10 09:25:35;;;;;;;9.03;1.87;;;18.50;47.90;;;;;;10452940;28;20189;-65
2021/04/10 09:30:57;;;;;;;4.17;1.60;;;18.30;44.10;;;;;;10450394;28;20220;-63
2021/04/10 09:36:45;;;;;;;39.03;26.43;;;18.20;43.00;;;;;;10419211;28;20218;-63
2021/04/10 09:42:06;;;;;;;97.47;71.20;;;18.20;44.40;;;;;;10445693;28;20263;-65
2021/04/10 09:48:10;;;;;;;55.77;37.97;;;18.30;45.30;;;;;;10454502;28;20193;-62
2021/04/10 09:53:35;;;;;;;46.60;34.00;;;18.30;45.70;;;;;;10453794;28;20222;-63
2021/04/10 09:59:03;;;;;;;45.77;31.43;;;18.30;46.00;;;;;;10453222;28;20193;-64
2021/04/10 10:04:25;;;;;;;86.13;28.73;;;18.30;46.40;;;;;;10451563;28;20205;-65
2021/04/10 10:09:47;;;;;;;53.93;22.60;;;18.30;45.90;;;;;;10424309;28;20682;-63
2021/04/10 10:15:20;;;;;;;66.80;37.60;;;18.30;46.10;;;;;;10411655;28;20226;-63
2021/04/10 10:20:56;;;;;;;100.20;60.20;;;18.30;46.00;;;;;;10410882;28;20575;-62
2021/04/10 10:26:21;;;;;;;95.43;62.80;;;18.30;45.10;;;;;;10426203;28;20199;-64
2021/04/10 10:31:46;;;;;;;70.57;48.73;;;18.30;45.60;;;;;;10448055;28;20213;-63
2021/04/10 10:37:07;;;;;;;60.43;41.53;;;18.30;45.70;;;;;;10450891;28;20605;-66
2021/04/10 10:42:30;;;;;;;53.80;33.07;;;18.40;45.80;;;;;;10410502;28;20221;-64
2021/04/10 10:47:51;;;;;;;54.70;31.00;;;18.30;45.80;;;;;;10408754;28;20268;-66
2021/04/10 10:53:15;;;;;;;63.00;37.70;;;18.30;45.50;;;;;;10409803;28;20221;-65
2021/04/10 10:58:44;;;;;;;48.53;31.73;;;18.40;44.50;;;;;;10426948;28;20282;-65
2021/04/10 11:04:08;;;;;;;35.47;24.83;;;18.40;44.50;;;;;;10450190;28;20217;-65
2021/04/10 11:09:33;;;;;;;43.63;26.17;;;18.40;44.40;;;;;;10424173;28;20252;-65
2021/04/10 11:14:57;;;;;;;31.70;22.13;;;18.40;45.70;;;;;;10409622;28;20914;-65
2021/04/10 11:20:31;;;;;;;27.60;18.03;;;18.40;45.30;;;;;;10409084;28;20224;-66
2021/04/10 11:25:53;;;;;;;34.80;16.53;;;18.40;44.90;;;;;;10409729;28;20247;-63
2021/04/10 11:31:16;;;;;;;25.03;14.67;;;18.50;45.40;;;;;;10413136;28;20225;-62
2021/04/10 11:36:50;;;;;;;17.93;9.20;;;18.50;45.50;;;;;;10418712;28;20217;-63
2021/04/10 11:42:24;;;;;;;14.23;5.93;;;18.40;44.90;;;;;;10443744;28;20300;-60
2021/04/10 11:47:46;;;;;;;13.80;6.00;;;18.30;44.40;;;;;;10416159;28;20678;-56
2021/04/10 11:53:36;;;;;;;11.20;5.93;;;18.40;43.30;;;;;;10416371;28;20965;-59
2021/04/10 11:59:02;;;;;;;11.93;5.17;;;18.40;44.40;;;;;;10417609;28;20198;-59
2021/04/10 12:04:26;;;;;;;11.23;5.27;;;18.40;45.00;;;;;;10416897;28;20214;-59
2021/04/10 12:09:50;;;;;;;8.77;4.33;;;18.50;45.50;;;;;;10444041;22;20236;-69
2021/04/10 12:15:13;;;;;;;11.33;4.40;;;18.40;45.70;;;;;;10449353;28;20216;-68
2021/04/10 12:20:36;;;;;;;11.90;4.20;;;18.40;45.30;;;;;;10443549;28;20214;-68
2021/04/10 12:25:58;;;;;;;10.43;3.90;;;18.40;45.60;;;;;;10405751;28;20189;-69
2021/04/10 12:31:21;;;;;;;10.03;3.17;;;18.40;45.10;;;;;;10431272;28;20222;-69
2021/04/10 12:36:44;;;;;;;8.17;3.20;;;18.40;44.70;;;;;;10459226;28;20220;-68
2021/04/10 12:42:06;;;;;;;8.57;3.70;;;18.30;44.90;;;;;;10433371;28;20688;-68
2021/04/10 12:47:28;;;;;;;5.03;2.93;;;18.40;45.70;;;;;;10416009;28;20189;-67
2021/04/10 12:52:51;;;;;;;6.37;2.40;;;18.40;45.20;;;;;;10425108;28;20234;-69
2021/04/10 12:58:12;;;;;;;4.87;2.50;;;18.30;44.90;;;;;;10416337;28;20677;-69
2021/04/10 13:03:34;;;;;;;5.67;2.30;;;18.30;45.20;;;;;;10414858;28;20217;-69
2021/04/10 13:08:56;;;;;;;7.47;2.77;;;18.40;45.70;;;;;;10395907;28;20198;-68
2021/04/10 13:14:19;;;;;;;5.43;2.00;;;18.30;45.20;;;;;;10417514;28;20635;-69
2021/04/10 13:19:40;;;;;;;4.20;2.13;;;18.30;46.10;;;;;;10412239;28;20218;-69
2021/04/10 13:25:03;;;;;;;3.83;2.00;;;18.30;45.30;;;;;;10374382;28;20621;-68
2021/04/10 13:30:25;;;;;;;4.07;2.13;;;18.30;45.30;;;;;;10427185;28;20228;-69
2021/04/10 13:35:47;;;;;;;4.97;1.93;;;18.30;45.20;;;;;;10455632;28;20710;-69
2021/04/10 13:41:09;;;;;;;4.70;2.20;;;18.30;45.10;;;;;;10452034;28;20223;-68
2021/04/10 13:46:31;;;;;;;2.17;1.30;;;18.30;45.40;;;;;;10413436;28;20556;-68
2021/04/10 13:51:53;;;;;;;4.80;1.87;;;18.30;44.50;;;;;;10413152;28;20289;-67
2021/04/10 13:57:15;;;;;;;4.07;1.50;;;18.30;44.60;;;;;;10412089;28;20218;-69
2021/04/10 14:02:37;;;;;;;4.63;1.87;;;18.30;44.80;;;;;;10412808;28;20685;-68
2021/04/10 14:07:59;;;;;;;3.43;1.70;;;18.30;45.50;;;;;;10415001;28;20193;-67
2021/04/10 14:13:21;;;;;;;4.33;1.50;;;18.30;45.90;;;;;;10443375;28;20655;-68
2021/04/10 14:18:44;;;;;;;2.77;1.40;;;18.30;45.80;;;;;;10417342;28;20205;-68
2021/04/10 14:24:07;;;;;;;4.10;1.73;;;18.30;45.20;;;;;;10412817;28;20193;-69
2021/04/10 14:29:29;;;;;;;4.73;1.50;;;18.30;44.70;;;;;;10411684;28;20689;-68
2021/04/10 14:34:51;;;;;;;4.67;1.70;;;18.30;44.70;;;;;;10433168;28;20612;-68
2021/04/10 14:40:15;;;;;;;3.93;1.50;;;18.30;45.00;;;;;;10452676;28;20266;-68
2021/04/10 14:45:40;;;;;;;3.33;1.43;;;18.30;45.20;;;;;;10411902;28;20217;-68
2021/04/10 14:51:02;;;;;;;3.03;1.10;;;18.30;45.00;;;;;;10411137;28;20700;-68
2021/04/10 14:56:25;;;;;;;3.57;1.27;;;18.30;45.00;;;;;;10411676;28;20225;-68
2021/04/10 15:01:46;;;;;;;2.37;1.13;;;18.30;45.40;;;;;;10411131;28;20249;-68
2021/04/10 15:07:08;;;;;;;3.37;1.20;;;18.30;45.40;;;;;;10410776;28;20198;-68
2021/04/10 15:12:30;;;;;;;4.80;1.50;;;18.30;45.90;;;;;;10400789;28;20280;-68
2021/04/10 15:17:52;;;;;;;4.30;1.40;;;18.30;46.00;;;;;;10370391;28;20240;-68
2021/04/10 15:23:13;;;;;;;2.93;1.40;;;18.30;46.20;;;;;;10389919;28;20297;-69
2021/04/10 15:28:36;;;;;;;3.60;1.27;;;18.30;45.30;;;;;;10425583;28;20194;-67
2021/04/10 15:34:00;;;;;;;4.37;1.33;;;18.30;45.20;;;;;;10409947;28;20316;-69
2021/04/10 15:39:21;;;;;;;2.70;1.00;;;18.30;45.80;;;;;;10408397;28;20585;-68
2021/04/10 15:44:45;;;;;;;2.87;1.10;;;18.40;46.30;;;;;;10442220;28;20200;-68
2021/04/10 15:50:08;;;;;;;4.27;1.37;;;18.30;45.90;;;;;;10451607;28;20646;-68
2021/04/10 15:55:29;;;;;;;6.20;1.67;;;18.30;45.60;;;;;;10451567;28;20213;-68
2021/04/10 16:00:52;;;;;;;5.80;1.47;;;18.30;45.50;;;;;;10386621;28;20217;-68
2021/04/10 16:06:14;;;;;;;1.90;0.90;;;18.40;45.20;;;;;;10376571;28;20205;-68
2021/04/10 16:11:36;;;;;;;2.83;0.87;;;18.30;45.80;;;;;;10425445;28;20221;-69
2021/04/10 16:16:58;;;;;;;3.20;1.40;;;18.30;44.90;;;;;;10398506;28;20287;-68
2021/04/10 16:22:20;;;;;;;2.27;0.77;;;18.30;45.30;;;;;;10409343;28;20225;-68
2021/04/10 16:27:41;;;;;;;4.90;1.20;;;18.40;45.90;;;;;;10414360;28;20703;-69
2021/04/10 16:33:04;;;;;;;4.40;1.40;;;18.40;45.70;;;;;;10407042;28;20236;-68
2021/04/10 16:38:26;;;;;;;2.73;1.10;;;18.30;45.20;;;;;;10411669;28;20222;-69
2021/04/10 16:43:47;;;;;;;3.07;1.10;;;18.30;45.50;;;;;;10410306;28;20197;-69
2021/04/10 16:49:10;;;;;;;3.77;1.20;;;18.40;45.30;;;;;;10405649;28;20596;-68
2021/04/10 16:54:32;;;;;;;3.43;1.10;;;18.30;45.40;;;;;;10373853;28;20901;-69
2021/04/10 16:59:53;;;;;;;3.77;1.10;;;18.30;45.20;;;;;;10408512;28;20222;-68
2021/04/10 17:05:17;;;;;;;2.00;1.20;;;18.30;45.60;;;;;;10409905;28;20202;-69
2021/04/10 17:10:39;;;;;;;2.13;1.23;;;18.30;45.70;;;;;;10402741;28;20233;-69
2021/04/10 17:16:00;;;;;;;4.33;1.57;;;18.30;45.50;;;;;;10408895;28;20217;-69
2021/04/10 17:21:23;;;;;;;2.93;1.20;;;18.30;45.70;;;;;;10409522;28;20214;-69
2021/04/10 17:26:46;;;;;;;6.20;1.20;;;18.30;45.90;;;;;;10408985;28;20202;-69
2021/04/10 17:32:08;;;;;;;2.93;1.17;;;18.30;46.20;;;;;;10410192;28;20688;-68
2021/04/10 17:37:30;;;;;;;2.23;1.00;;;18.30;46.30;;;;;;10412350;28;20209;-69
2021/04/10 17:42:52;;;;;;;2.77;1.13;;;18.30;46.50;;;;;;10420777;28;20685;-67
2021/04/10 17:48:14;;;;;;;3.13;1.50;;;18.30;46.60;;;;;;10395024;28;20202;-68
2021/04/10 17:53:37;;;;;;;3.37;1.27;;;18.30;46.80;;;;;;10407008;28;20272;-68
2021/04/10 17:59:00;;;;;;;3.13;1.33;;;18.30;46.90;;;;;;10377527;28;20202;-67
2021/04/10 18:04:22;;;;;;;2.67;1.33;;;18.30;47.00;;;;;;10370532;28;20277;-67
2021/04/10 18:09:44;;;;;;;4.50;1.73;;;18.30;47.10;;;;;;10383020;28;20684;-67
2021/04/10 18:15:07;;;;;;;4.60;1.43;;;18.30;47.10;;;;;;10448628;22;20762;-68
2021/04/10 18:20:29;;;;;;;2.20;1.20;;;18.30;47.20;;;;;;10446469;28;20196;-69
2021/04/10 18:25:52;;;;;;;3.87;1.23;;;18.30;47.20;;;;;;10397685;28;20198;-68
2021/04/10 18:31:13;;;;;;;4.23;1.30;;;18.30;47.20;;;;;;10409160;28;20247;-68
2021/04/10 18:36:36;;;;;;;3.50;1.60;;;18.30;47.30;;;;;;10371990;28;20261;-69
2021/04/10 18:41:58;;;;;;;3.90;1.57;;;18.30;47.40;;;;;;10380774;28;20210;-68
2021/04/10 18:47:22;;;;;;;3.33;1.67;;;18.30;47.40;;;;;;10401081;28;20236;-68
2021/04/10 18:52:44;;;;;;;2.37;1.03;;;18.30;47.40;;;;;;10408196;28;20222;-68
2021/04/10 18:58:06;;;;;;;3.87;1.30;;;18.30;47.60;;;;;;10411199;28;20217;-69
2021/04/10 19:03:28;;;;;;;3.63;1.60;;;18.30;47.60;;;;;;10410043;28;20221;-68
2021/04/10 19:08:50;;;;;;;2.73;1.40;;;18.30;47.60;;;;;;10391451;28;20194;-68
2021/04/10 19:14:12;;;;;;;4.43;1.57;;;18.30;47.70;;;;;;10400419;28;20221;-68
2021/04/10 19:19:34;;;;;;;3.47;1.43;;;18.30;47.70;;;;;;10408161;28;20681;-68
2021/04/10 19:24:55;;;;;;;4.47;1.40;;;18.30;47.80;;;;;;10404457;28;20221;-67
2021/04/10 19:30:20;;;;;;;3.33;1.57;;;18.30;47.90;;;;;;10408035;28;20197;-67
2021/04/10 19:35:41;;;;;;;2.87;1.30;;;18.30;47.90;;;;;;10386944;28;20574;-67
2021/04/10 19:41:05;;;;;;;4.33;1.60;;;18.30;47.90;;;;;;10408519;28;20595;-67
2021/04/10 19:46:30;;;;;;;3.07;1.20;;;18.30;48.00;;;;;;10408661;28;20189;-69
2021/04/10 19:51:53;;;;;;;2.83;1.30;;;18.30;48.00;;;;;;10409914;28;20306;-68
2021/04/10 19:57:15;;;;;;;2.57;1.10;;;18.40;48.00;;;;;;10367271;28;20214;-69
2021/04/10 20:02:37;;;;;;;3.60;1.30;;;18.50;48.10;;;;;;10413258;28;20228;-69
2021/04/10 20:07:59;;;;;;;2.53;1.40;;;18.50;48.20;;;;;;10416592;28;20252;-69
2021/04/10 20:13:20;;;;;;;2.17;1.33;;;18.50;48.20;;;;;;10418076;28;20229;-67
2021/04/10 20:18:43;;;;;;;2.90;1.40;;;18.50;48.10;;;;;;10417798;28;20236;-66
2021/04/10 20:24:06;;;;;;;3.90;1.57;;;18.40;48.20;;;;;;10415176;28;20213;-66
2021/04/10 20:29:28;;;;;;;5.97;1.70;;;18.40;48.40;;;;;;10415178;28;20743;-66
2021/04/10 20:34:50;;;;;;;5.17;1.30;;;18.30;48.50;;;;;;10414556;28;20240;-65
2021/04/10 20:40:12;;;;;;;3.53;1.63;;;18.30;48.60;;;;;;10414314;28;20193;-66
2021/04/10 20:45:33;;;;;;;3.33;1.23;;;18.30;48.70;;;;;;10413772;28;20689;-66
2021/04/10 20:50:56;;;;;;;3.30;1.60;;;18.30;48.90;;;;;;10413674;28;20255;-66
2021/04/10 20:56:18;;;;;;;3.73;1.60;;;18.30;49.00;;;;;;10395312;28;20222;-67
2021/04/10 21:01:40;;;;;;;3.07;1.63;;;18.20;49.10;;;;;;10413233;28;20217;-68
2021/04/10 21:07:03;;;;;;;2.87;1.23;;;18.20;49.20;;;;;;10416854;28;20194;-67
2021/04/10 21:12:25;;;;;;;4.33;1.90;;;18.20;49.50;;;;;;10415173;28;20232;-70
2021/04/10 21:17:46;;;;;;;3.23;1.50;;;18.20;49.60;;;;;;10413526;28;20225;-67
2021/04/10 21:23:10;;;;;;;3.63;1.70;;;18.20;49.50;;;;;;10400405;28;20218;-67
2021/04/10 21:28:31;;;;;;;3.47;1.60;;;18.20;49.60;;;;;;10414842;28;20198;-67
2021/04/10 21:33:55;;;;;;;3.77;1.70;;;18.20;49.80;;;;;;10414692;28;20225;-66
2021/04/10 21:39:17;;;;;;;3.27;1.57;;;18.20;49.80;;;;;;10414190;28;20263;-66
2021/04/10 21:44:39;;;;;;;3.40;1.83;;;18.10;49.80;;;;;;10414228;28;20237;-67
2021/04/10 21:50:01;;;;;;;3.10;1.50;;;18.20;49.90;;;;;;10408893;28;20221;-67
2021/04/10 21:55:24;;;;;;;4.20;1.80;;;18.10;49.90;;;;;;10391654;28;20244;-67
2021/04/10 22:00:57;;;;;;;3.40;1.47;;;18.10;49.90;;;;;;10418074;28;20652;-67
2021/04/10 22:06:22;;;;;;;3.40;1.60;;;18.10;50.10;;;;;;10414304;28;20708;-67
2021/04/10 22:11:44;;;;;;;3.13;1.80;;;18.10;50.10;;;;;;10412950;28;20275;-67
2021/04/10 22:17:06;;;;;;;3.47;1.70;;;18.00;50.20;;;;;;10413223;28;20225;-67
2021/04/10 22:22:28;;;;;;;3.47;1.73;;;18.00;50.20;;;;;;10410806;28;20221;-67
2021/04/10 22:27:51;;;;;;;2.90;1.70;;;18.00;50.20;;;;;;10412676;28;20546;-67
2021/04/10 22:33:12;;;;;;;3.83;1.33;;;18.00;50.30;;;;;;10411147;28;20222;-68
2021/04/10 22:38:34;;;;;;;1.23;1.00;;;18.10;50.20;;;;;;10412372;28;20225;-68
2021/04/10 22:43:57;;;;;;;3.13;1.20;;;18.10;50.40;;;;;;10410366;28;20585;-67
2021/04/10 22:49:19;;;;;;;1.33;1.00;;;18.10;50.40;;;;;;10410476;28;20186;-67
2021/04/10 22:54:40;;;;;;;2.47;1.23;;;18.10;50.40;;;;;;10409870;28;20229;-68
2021/04/10 23:00:04;;;;;;;2.43;1.03;;;18.10;50.40;;;;;;10407293;28;20714;-68
2021/04/10 23:05:30;;;;;;;2.37;1.27;;;18.10;50.50;;;;;;10409408;28;20210;-68
2021/04/10 23:10:52;;;;;;;1.93;1.13;;;18.10;50.40;;;;;;10411227;28;20243;-68
2021/04/10 23:16:14;;;;;;;2.17;1.10;;;18.10;50.30;;;;;;10408326;28;20221;-68
2021/04/10 23:21:36;;;;;;;1.20;1.10;;;18.20;50.30;;;;;;10410603;28;20267;-68
2021/04/10 23:26:57;;;;;;;1.73;1.13;;;18.10;50.30;;;;;;10410742;28;20198;-68
2021/04/10 23:32:20;;;;;;;2.10;1.03;;;18.10;50.50;;;;;;10411207;28;20239;-68
2021/04/10 23:37:41;;;;;;;1.43;1.00;;;18.10;50.50;;;;;;10414570;28;20284;-68
2021/04/10 23:43:06;;;;;;;1.17;1.10;;;18.10;50.40;;;;;;10418621;28;20213;-67
2021/04/10 23:48:29;;;;;;;1.70;1.03;;;18.10;50.50;;;;;;10417805;28;20561;-68
2021/04/10 23:53:50;;;;;;;1.57;1.30;;;18.10;50.60;;;;;;10418414;28;20310;-67
2021/04/10 23:59:12;;;;;;;1.23;1.07;;;18.10;50.60;;;;;;10416761;28;20209;-68
